Time;durP1;ratioP1;P1;durP2;ratioP2;P2;SDS_P1;SDS_P2;PMS_P1;PMS_P2;Temp;Humidity;BMP_temperature;BMP_pressure;BME280_temperature;BME280_humidity;BME280_pressure;Samples;Min_cycle;Max_cycle;Signal;HPM_P1;HPM_P2
2021/03/03 00:00:53;;;;;;;;;48.25;36.50;;;;;12.78;47.43;99966.25;4684406;29;102972;-78
2021/03/03 00:03:20;;;;;;;;;41.50;33.50;;;;;12.78;46.39;99976.28;4682525;29;102810;-78
2021/03/03 00:05:47;;;;;;;;;41.25;32.75;;;;;12.77;47.11;99975.41;4669769;29;104424;-78
2021/03/03 00:08:14;;;;;;;;;40.75;35.75;;;;;12.77;46.77;99969.16;4685794;29;103924;-78
2021/03/03 00:10:40;;;;;;;;;46.25;35.00;;;;;12.77;46.53;99969.16;4685141;29;103272;-78
2021/03/03 00:13:08;;;;;;;;;42.50;32.50;;;;;12.75;46.94;99968.47;4686263;29;102763;-78
2021/03/03 00:15:34;;;;;;;;;41.25;33.75;;;;;12.75;46.51;99965.75;4681282;29;103049;-78
2021/03/03 00:18:01;;;;;;;;;40.75;34.00;;;;;12.74;47.16;99969.50;4688578;29;104773;-78
2021/03/03 00:20:28;;;;;;;;;45.25;36.50;;;;;12.74;46.74;99969.50;4681033;29;102891;-78
2021/03/03 00:22:54;;;;;;;;;40.00;33.00;;;;;12.75;47.25;99971.19;4688304;29;103207;-78
2021/03/03 00:25:21;;;;;;;;;42.25;33.00;;;;;12.73;46.81;99962.41;4687088;29;104945;-78
2021/03/03 00:27:48;;;;;;;;;41.75;34.00;;;;;12.72;46.71;99956.13;4685453;29;104682;-78
2021/03/03 00:30:15;;;;;;;;;41.25;34.50;;;;;12.72;47.00;99960.69;4685644;29;102933;-78
2021/03/03 00:32:42;;;;;;;;;46.75;35.00;;;;;12.70;46.88;99957.34;4685360;29;102841;-78
2021/03/03 00:35:09;;;;;;;;;47.50;32.50;;;;;12.71;47.10;99957.13;4686330;29;103007;-78
2021/03/03 00:37:36;;;;;;;;;38.00;32.25;;;;;12.70;46.53;99962.78;4668597;29;103611;-78
2021/03/03 00:40:04;;;;;;;;;37.25;34.00;;;;;12.69;46.46;99955.66;4683471;29;103030;-78
2021/03/03 00:42:31;;;;;;;;;43.25;34.75;;;;;12.69;47.46;99961.06;4684863;29;102745;-78
2021/03/03 00:44:58;;;;;;;;;38.25;32.75;;;;;12.69;46.61;99952.94;4669950;29;104816;-77
2021/03/03 00:47:24;;;;;;;;;40.25;32.00;;;;;12.69;46.65;99955.66;4691572;29;104438;-78
2021/03/03 00:49:51;;;;;;;;;42.25;35.25;;;;;12.68;47.15;99953.94;4685572;29;104634;-78
2021/03/03 00:52:18;;;;;;;;;35.50;32.50;;;;;12.67;46.91;99947.69;4683077;29;103317;-78
2021/03/03 00:54:45;;;;;;;;;40.00;32.50;;;;;12.66;47.27;99934.28;4685779;29;104747;-78
2021/03/03 00:57:11;;;;;;;;;41.25;34.25;;;;;12.66;46.44;99942.41;4683700;29;104519;-78
2021/03/03 00:59:38;;;;;;;;;39.75;34.50;;;;;12.65;47.19;99941.59;4672611;29;111399;-78
2021/03/03 01:02:04;;;;;;;;;47.00;35.75;;;;;12.66;47.15;99931.56;4676370;29;102903;-78
2021/03/03 01:04:31;;;;;;;;;43.25;35.00;;;;;12.64;46.89;99928.22;4669324;29;104338;-78
2021/03/03 01:06:58;;;;;;;;;43.00;36.00;;;;;12.64;47.08;99930.91;4684515;29;104110;-78
2021/03/03 01:09:25;;;;;;;;;41.25;35.25;;;;;12.64;46.91;99939.06;4683268;29;102752;-78
2021/03/03 01:11:52;;;;;;;;;38.25;34.25;;;;;12.63;46.61;99921.94;4677793;29;102969;-78
2021/03/03 01:14:18;;;;;;;;;36.75;32.75;;;;;12.61;46.76;99923.97;4682443;29;103298;-78
2021/03/03 01:16:50;;;;;;;;;43.75;35.00;;;;;12.61;46.80;99920.44;4676816;29;104426;-78
2021/03/03 01:19:17;;;;;;;;;36.75;33.25;;;;;12.61;47.28;99921.25;4683336;29;103132;-78
2021/03/03 01:21:44;;;;;;;;;41.75;35.75;;;;;12.61;47.10;99931.28;4667791;29;103187;-78
2021/03/03 01:24:13;;;;;;;;;43.25;35.50;;;;;12.57;47.04;99924.50;4677707;29;103039;-78
2021/03/03 01:26:40;;;;;;;;;40.00;34.00;;;;;12.59;46.57;99933.31;4667151;29;104014;-78
2021/03/03 01:29:07;;;;;;;;;41.75;32.50;;;;;12.59;46.51;99928.75;4678223;29;102844;-78
2021/03/03 01:31:34;;;;;;;;;41.25;33.00;;;;;12.59;47.09;99923.31;4656400;29;110252;-78
2021/03/03 01:34:01;;;;;;;;;40.25;32.50;;;;;12.58;47.00;99931.63;4686579;29;104407;-78
2021/03/03 01:36:28;;;;;;;;;41.00;33.25;;;;;12.57;46.71;99924.50;4678608;29;104503;-78
2021/03/03 01:38:55;;;;;;;;;36.75;31.25;;;;;12.58;46.51;99915.34;4686540;29;103213;-78
2021/03/03 01:41:21;;;;;;;;;37.75;33.00;;;;;12.56;46.32;99917.41;4684029;29;102908;-78
2021/03/03 01:43:48;;;;;;;;;48.25;35.50;;;;;12.54;47.17;99914.88;4683818;29;102909;-78
2021/03/03 01:46:15;;;;;;;;;42.25;32.50;;;;;12.53;47.22;99908.59;4688503;29;104017;-78
2021/03/03 01:48:42;;;;;;;;;39.50;32.75;;;;;12.53;47.13;99914.03;4685075;29;103050;-78
2021/03/03 01:51:08;;;;;;;;;39.00;34.00;;;;;12.52;46.71;99909.63;4678851;29;103043;-78
2021/03/03 01:53:35;;;;;;;;;49.00;36.50;;;;;12.53;46.58;99902.34;4671048;29;103011;-78
2021/03/03 01:56:02;;;;;;;;;41.25;35.00;;;;;12.52;46.60;99900.63;4684775;29;104255;-78
2021/03/03 01:58:29;;;;;;;;;44.75;34.00;;;;;12.51;47.06;99897.09;4677861;29;103055;-78
2021/03/03 02:01:10;;;;;;;;;41.75;35.00;;;;;12.52;47.17;99897.94;4592204;29;102884;-78
2021/03/03 02:03:38;;;;;;;;;44.75;35.25;;;;;12.51;46.78;99896.25;4679830;29;103054;-78
2021/03/03 02:06:25;;;;;;;;;41.75;35.75;;;;;12.49;46.87;99901.84;4681572;29;104472;-78
2021/03/03 02:08:57;;;;;;;;;40.00;34.50;;;;;12.49;46.73;99899.16;4651440;29;103887;-78
2021/03/03 02:11:31;;;;;;;;;47.25;35.50;;;;;12.50;46.83;99902.72;4660741;29;103051;-78
2021/03/03 02:14:03;;;;;;;;;45.75;34.50;;;;;12.47;46.98;99903.91;4658844;29;105626;-77
2021/03/03 02:16:30;;;;;;;;;40.75;33.00;;;;;12.47;47.07;99894.94;4657835;29;103826;-78
2021/03/03 02:19:00;;;;;;;;;47.75;35.75;;;;;12.47;46.95;99894.94;4685237;29;103079;-78
2021/03/03 02:21:38;;;;;;;;;39.00;34.00;;;;;12.46;46.49;99887.81;4659477;29;102972;-78
2021/03/03 02:24:23;;;;;;;;;41.25;32.75;;;;;12.46;47.06;99885.94;4647963;29;103102;-78
2021/03/03 02:26:51;;;;;;;;;39.50;34.75;;;;;12.45;47.11;99886.97;4657048;29;104009;-78
2021/03/03 02:29:29;;;;;;;;;40.50;35.00;;;;;12.44;46.56;99889.84;4681347;29;102992;-78
2021/03/03 02:31:55;;;;;;;;;45.50;33.00;;;;;12.39;46.46;99879.53;4653357;29;103062;-78
2021/03/03 02:34:25;;;;;;;;;41.50;36.00;;;;;12.44;46.75;99888.00;4657709;29;103053;-78
2021/03/03 02:36:52;;;;;;;;;40.50;32.50;;;;;12.42;47.05;99890.06;4660595;29;104585;-78
2021/03/03 02:39:22;;;;;;;;;45.25;36.00;;;;;12.43;47.33;99880.03;4659910;29;103203;-78
2021/03/03 02:41:49;;;;;;;;;39.75;33.00;;;;;12.39;46.63;99878.69;4665108;29;103003;-78
2021/03/03 02:44:16;;;;;;;;;38.50;29.00;;;;;12.41;46.93;99891.06;4688959;29;104674;-78
2021/03/03 02:46:43;;;;;;;;;37.00;33.75;;;;;12.41;47.15;99876.66;4682262;29;104380;-78
2021/03/03 02:49:13;;;;;;;;;40.25;35.00;;;;;12.40;46.36;99874.97;4684709;29;102930;-78
2021/03/03 02:51:39;;;;;;;;;39.50;33.50;;;;;12.41;46.97;99876.66;4654749;29;102975;-78
2021/03/03 02:54:13;;;;;;;;;37.00;29.00;;;;;12.39;46.50;99862.44;4689152;29;103078;-78
2021/03/03 02:56:40;;;;;;;;;43.50;31.00;;;;;12.38;46.59;99872.44;4681749;29;104155;-78
2021/03/03 02:59:34;;;;;;;;;44.25;32.25;;;;;12.37;46.90;99868.06;4667741;29;102979;-78
2021/03/03 03:02:02;;;;;;;;;38.25;33.00;;;;;12.36;46.23;99863.66;4674824;29;103012;-78
2021/03/03 03:04:31;;;;;;;;;45.75;32.75;;;;;12.37;47.05;99859.06;4692615;29;102991;-78
2021/03/03 03:06:59;;;;;;;;;38.75;33.00;;;;;12.38;46.55;99858.06;4669950;29;109457;-78
2021/03/03 03:09:25;;;;;;;;;40.50;32.25;;;;;12.38;47.05;99860.75;4667754;29;103793;-78
2021/03/03 03:11:53;;;;;;;;;37.75;33.00;;;;;12.35;46.84;99853.81;4685650;29;102762;-78
2021/03/03 03:14:25;;;;;;;;;44.00;34.75;;;;;12.34;46.32;99868.41;4668331;29;103168;-78
2021/03/03 03:16:51;;;;;;;;;36.75;32.75;;;;;12.35;46.31;99863.81;4671680;29;103682;-78
2021/03/03 03:19:38;;;;;;;;;41.25;34.50;;;;;12.34;46.32;99860.25;4639978;29;102845;-78
2021/03/03 03:22:08;;;;;;;;;43.25;35.50;;;;;12.32;46.84;99856.91;4657204;29;102897;-78
2021/03/03 03:24:36;;;;;;;;;45.25;32.75;;;;;12.33;46.73;99857.75;4666511;29;102984;-78
2021/03/03 03:27:02;;;;;;;;;37.50;32.75;;;;;12.32;46.72;99862.31;4668203;29;104157;-78
2021/03/03 03:29:29;;;;;;;;;42.75;33.25;;;;;12.31;46.84;99860.63;4665663;29;104518;-79
2021/03/03 03:31:56;;;;;;;;;38.00;35.00;;;;;12.30;46.88;99858.94;4644035;29;102835;-78
2021/03/03 03:34:23;;;;;;;;;43.00;35.00;;;;;12.27;46.45;99853.88;4663355;29;104318;-78
2021/03/03 03:36:49;;;;;;;;;45.50;34.50;;;;;12.31;46.87;99857.91;4668450;29;104408;-78
2021/03/03 03:39:16;;;;;;;;;40.25;34.00;;;;;12.30;47.42;99858.94;4664813;29;104155;-78
2021/03/03 03:41:43;;;;;;;;;39.75;36.00;;;;;12.30;47.14;99852.66;4671723;29;102979;-78
2021/03/03 03:44:11;;;;;;;;;38.25;33.00;;;;;12.29;46.39;99857.25;4662260;29;103024;-78
2021/03/03 03:46:39;;;;;;;;;32.50;26.25;;;;;12.28;46.84;99850.16;4665256;29;103977;-78
2021/03/03 03:49:06;;;;;;;;;39.25;34.50;;;;;12.29;46.57;99845.59;4664192;29;102998;-78
2021/03/03 03:51:32;;;;;;;;;37.75;32.00;;;;;12.27;46.51;99843.03;4667705;29;102751;-78
2021/03/03 03:54:02;;;;;;;;;43.25;34.50;;;;;12.25;47.16;99839.66;4667645;29;103068;-78
2021/03/03 03:56:29;;;;;;;;;41.50;33.00;;;;;12.25;46.52;99845.06;4664304;29;108712;-78
2021/03/03 03:58:56;;;;;;;;;42.75;35.00;;;;;12.24;46.83;99837.16;4664152;29;103377;-78
2021/03/03 04:01:22;;;;;;;;;42.00;33.25;;;;;12.24;46.51;99848.84;4667136;29;103041;-78
2021/03/03 04:03:49;;;;;;;;;48.75;36.25;;;;;12.25;46.96;99850.50;4668759;29;102994;-78
2021/03/03 04:06:16;;;;;;;;;36.50;33.00;;;;;12.24;46.42;99846.13;4664728;29;104085;-78
2021/03/03 04:08:42;;;;;;;;;44.50;35.50;;;;;12.24;46.17;99848.84;4663442;29;102974;-79
2021/03/03 04:11:09;;;;;;;;;44.25;35.00;;;;;12.23;46.67;99846.28;4666993;29;102983;-78
2021/03/03 04:13:36;;;;;;;;;43.25;33.00;;;;;12.22;46.65;99844.59;4660981;29;103889;-78
2021/03/03 04:16:03;;;;;;;;;37.00;33.75;;;;;12.22;46.53;99845.44;4666053;29;104075;-79
2021/03/03 04:18:30;;;;;;;;;36.50;33.00;;;;;12.23;46.04;99847.16;4664357;29;102945;-79
2021/03/03 04:20:56;;;;;;;;;36.25;33.25;;;;;12.20;46.81;99842.09;4683318;29;102812;-79
2021/03/03 04:23:23;;;;;;;;;37.25;32.75;;;;;12.21;46.18;99843.75;4677115;29;110663;-79
2021/03/03 04:25:50;;;;;;;;;42.50;33.00;;;;;12.22;46.89;99845.44;4681790;29;103924;-79
2021/03/03 04:28:17;;;;;;;;;38.00;34.00;;;;;12.21;46.75;99843.75;4674782;29;103079;-79
2021/03/03 04:30:43;;;;;;;;;36.00;31.25;;;;;12.20;46.50;99836.66;4667654;29;104553;-79
2021/03/03 04:33:12;;;;;;;;;36.25;32.50;;;;;12.20;46.50;99833.97;4680192;29;103145;-79
2021/03/03 04:35:40;;;;;;;;;42.00;34.50;;;;;12.20;46.64;99836.66;4682856;29;104042;-79
2021/03/03 04:38:09;;;;;;;;;41.75;35.00;;;;;12.19;46.59;99840.41;4685327;29;102833;-79
2021/03/03 04:40:36;;;;;;;;;46.25;35.50;;;;;12.18;46.48;99840.56;4678393;29;103896;-79
2021/03/03 04:43:03;;;;;;;;;34.75;29.50;;;;;12.19;46.24;99840.41;4689807;29;103020;-79
2021/03/03 04:45:30;;;;;;;;;39.00;33.00;;;;;12.19;46.51;99828.72;4677548;29;109382;-79
2021/03/03 04:47:56;;;;;;;;;41.25;33.50;;;;;12.17;46.50;99837.00;4680462;29;103038;-79
2021/03/03 04:50:23;;;;;;;;;44.50;33.25;;;;;12.18;46.67;99830.56;4679716;29;103032;-79
2021/03/03 04:52:50;;;;;;;;;48.00;35.25;;;;;12.17;46.52;99826.16;4684413;29;102846;-79
2021/03/03 04:55:17;;;;;;;;;31.75;24.75;;;;;12.16;46.40;99823.66;4682853;29;104753;-79
2021/03/03 04:57:44;;;;;;;;;40.75;34.75;;;;;12.15;46.11;99820.09;4665588;29;107029;-79
2021/03/03 05:00:11;;;;;;;;;42.25;35.00;;;;;12.16;46.44;99824.47;4659242;29;102970;-79
2021/03/03 05:02:38;;;;;;;;;47.25;33.50;;;;;12.14;46.64;99821.13;4674134;29;102939;-79
2021/03/03 05:05:05;;;;;;;;;44.00;32.25;;;;;12.15;46.48;99819.25;4686525;29;103941;-79
2021/03/03 05:07:32;;;;;;;;;42.25;36.50;;;;;12.14;46.61;99814.84;4666606;29;102891;-79
2021/03/03 05:09:58;;;;;;;;;42.50;35.00;;;;;12.14;46.38;99814.84;4682630;29;104003;-79
2021/03/03 05:12:27;;;;;;;;;44.00;33.00;;;;;12.13;46.41;99816.72;4682645;29;102939;-79
2021/03/03 05:14:54;;;;;;;;;47.00;37.00;;;;;12.12;46.41;99806.88;4676334;29;103948;-79
2021/03/03 05:17:21;;;;;;;;;44.25;35.25;;;;;12.12;46.14;99806.03;4669421;29;102941;-79
2021/03/03 05:19:48;;;;;;;;;37.75;33.50;;;;;12.12;46.48;99817.72;4663322;29;103104;-79
2021/03/03 05:22:14;;;;;;;;;45.00;35.00;;;;;12.11;46.75;99813.34;4670952;29;102918;-79
2021/03/03 05:24:41;;;;;;;;;43.75;35.50;;;;;12.12;46.60;99806.03;4665380;29;103904;-79
2021/03/03 05:27:08;;;;;;;;;39.25;34.25;;;;;12.11;46.41;99804.38;4663425;29;103947;-79
2021/03/03 05:29:34;;;;;;;;;43.00;36.25;;;;;12.09;46.38;99801.84;4669063;29;102846;-79
2021/03/03 05:32:01;;;;;;;;;37.25;33.50;;;;;12.08;46.67;99809.13;4669925;29;102964;-79
2021/03/03 05:34:28;;;;;;;;;38.75;34.25;;;;;12.09;45.99;99812.69;4664306;29;104120;-79
2021/03/03 05:36:58;;;;;;;;;36.25;30.00;;;;;12.08;46.59;99817.25;4666900;29;102881;-79
2021/03/03 05:39:25;;;;;;;;;44.25;34.25;;;;;12.09;46.27;99812.69;4667854;29;105190;-79
2021/03/03 05:41:51;;;;;;;;;40.25;33.00;;;;;12.08;46.22;99813.69;4673464;29;102925;-79
2021/03/03 05:44:18;;;;;;;;;43.25;35.00;;;;;12.07;46.34;99812.84;4667624;29;104034;-79
2021/03/03 05:46:46;;;;;;;;;53.75;36.25;;;;;12.06;46.20;99807.63;4668306;29;105471;-79
2021/03/03 05:49:16;;;;;;;;;41.50;33.50;;;;;12.06;46.31;99804.91;4653830;29;102900;-79
2021/03/03 05:51:43;;;;;;;;;36.75;32.00;;;;;12.06;46.62;99807.63;4651819;29;102888;-79
2021/03/03 05:54:10;;;;;;;;;44.00;35.25;;;;;12.05;46.19;99811.34;4666315;29;104475;-79
2021/03/03 05:56:36;;;;;;;;;45.50;35.25;;;;;12.04;46.37;99804.25;4662245;29;104687;-78
2021/03/03 05:59:03;;;;;;;;;45.50;35.50;;;;;12.06;46.48;99804.91;4655333;29;102896;-79
2021/03/03 06:01:30;;;;;;;;;39.50;33.25;;;;;12.05;46.19;99800.50;4660044;29;103153;-79
2021/03/03 06:04:16;;;;;;;;;44.00;36.75;;;;;12.05;46.19;99792.38;4602566;29;111816;-79
2021/03/03 06:06:44;;;;;;;;;37.25;30.75;;;;;12.06;46.65;99804.91;4650475;29;102919;-79
2021/03/03 06:09:10;;;;;;;;;42.50;33.75;;;;;12.05;46.45;99801.34;4672709;29;102926;-79
2021/03/03 06:11:37;;;;;;;;;50.00;35.25;;;;;12.04;45.82;99796.09;4667840;29;103073;-79
2021/03/03 06:14:04;;;;;;;;;42.75;35.50;;;;;12.03;46.18;99800.69;4662925;29;104003;-79
2021/03/03 06:16:31;;;;;;;;;46.00;36.50;;;;;12.02;45.80;99803.59;4659984;29;103008;-79
2021/03/03 06:18:58;;;;;;;;;43.75;34.75;;;;;12.02;46.38;99800.88;4667183;29;102989;-79
2021/03/03 06:21:26;;;;;;;;;44.00;35.50;;;;;12.02;46.05;99796.28;4671566;29;104397;-79
2021/03/03 06:24:09;;;;;;;;;51.50;37.50;;;;;12.03;45.92;99805.25;4650963;29;104615;-79
2021/03/03 06:26:55;;;;;;;;;43.25;35.50;;;;;12.02;46.43;99801.69;4668336;29;102918;-79
2021/03/03 06:29:22;;;;;;;;;49.75;33.75;;;;;12.02;46.15;99803.59;4611267;29;103036;-79
2021/03/03 06:31:49;;;;;;;;;35.50;32.75;;;;;12.02;46.00;99800.88;4673489;29;102989;-79
2021/03/03 06:34:20;;;;;;;;;40.75;33.00;;;;;12.01;45.75;99799.19;4672097;29;104671;-79
2021/03/03 06:36:56;;;;;;;;;42.50;35.75;;;;;12.01;46.19;99799.19;4654928;29;103048;-79
2021/03/03 06:39:24;;;;;;;;;39.50;35.00;;;;;12.00;46.67;99797.50;4669286;29;104030;-79
2021/03/03 06:41:53;;;;;;;;;49.50;37.00;;;;;12.00;46.41;99798.34;4675507;29;103405;-79
2021/03/03 06:44:19;;;;;;;;;44.75;35.75;;;;;11.99;46.03;99801.22;4669686;29;104036;-79
2021/03/03 06:47:06;;;;;;;;;49.00;35.25;;;;;11.98;46.17;99791.41;4652751;29;102858;-78
2021/03/03 06:49:33;;;;;;;;;42.00;35.75;;;;;11.99;46.15;99790.38;4664609;29;103696;-79
2021/03/03 06:52:00;;;;;;;;;35.25;32.75;;;;;12.00;45.98;99797.50;4673934;29;104506;-79
2021/03/03 06:54:27;;;;;;;;;42.00;34.50;;;;;11.98;46.05;99788.69;4666413;29;103992;-79
2021/03/03 06:56:57;;;;;;;;;42.25;36.50;;;;;11.99;45.97;99788.50;4670952;29;102859;-79
2021/03/03 06:59:25;;;;;;;;;44.00;36.00;;;;;11.98;45.70;99789.53;4667375;29;103830;-79
2021/03/03 07:01:54;;;;;;;;;45.25;36.75;;;;;11.99;46.18;99790.38;4672808;29;102998;-79
2021/03/03 07:04:36;;;;;;;;;45.00;35.00;;;;;11.99;46.40;99791.22;4668894;29;103983;-79
2021/03/03 07:07:11;;;;;;;;;43.00;34.75;;;;;11.99;46.44;99784.97;4678706;29;104763;-79
2021/03/03 07:09:46;;;;;;;;;38.75;34.50;;;;;11.98;45.57;99783.25;4671038;29;103205;-79
2021/03/03 07:12:14;;;;;;;;;43.00;34.25;;;;;11.98;46.09;99777.84;4620263;29;103149;-79
2021/03/03 07:14:42;;;;;;;;;43.75;35.25;;;;;11.99;46.01;99774.13;4669311;29;104140;-78
2021/03/03 07:17:19;;;;;;;;;44.25;35.50;;;;;11.98;46.66;99778.69;4668440;29;103009;-78
2021/03/03 07:19:47;;;;;;;;;42.75;34.75;;;;;11.98;46.25;99777.84;4681089;29;103080;-79
2021/03/03 07:22:33;;;;;;;;;47.25;35.00;;;;;11.97;45.89;99771.59;4673989;29;102919;-79
2021/03/03 07:25:10;;;;;;;;;45.75;36.75;;;;;11.99;45.72;99774.13;4669532;29;104372;-79
2021/03/03 07:27:38;;;;;;;;;43.75;35.00;;;;;11.99;46.24;99782.25;4654807;29;103912;-79
2021/03/03 07:30:24;;;;;;;;;48.50;35.75;;;;;11.97;46.05;99776.19;4686558;29;103012;-79
2021/03/03 07:32:51;;;;;;;;;38.75;33.75;;;;;11.98;46.22;99778.69;4618799;29;102979;-79
2021/03/03 07:35:29;;;;;;;;;39.75;34.75;;;;;11.96;46.18;99771.78;4692184;29;103751;-79
2021/03/03 07:37:57;;;;;;;;;50.50;36.75;;;;;11.97;46.10;99774.31;4687907;29;104850;-79
2021/03/03 07:40:27;;;;;;;;;42.25;32.75;;;;;11.97;46.15;99776.19;4663982;29;105047;-78
2021/03/03 07:42:55;;;;;;;;;50.00;36.50;;;;;11.97;46.08;99768.91;4690307;29;102785;-77
2021/03/03 07:45:22;;;;;;;;;49.50;36.50;;;;;11.97;45.59;99770.75;4684729;29;103981;-77
2021/03/03 07:47:50;;;;;;;;;50.25;36.50;;;;;11.99;45.83;99776.81;4661618;29;102737;-77
2021/03/03 07:50:18;;;;;;;;;42.00;35.00;;;;;11.98;46.17;99777.84;4687085;29;103004;-77
2021/03/03 07:52:46;;;;;;;;;41.00;34.75;;;;;11.98;46.09;99772.41;4691232;29;102930;-77
2021/03/03 07:55:13;;;;;;;;;42.50;36.50;;;;;11.98;46.09;99772.41;4674783;29;104210;-77
2021/03/03 07:57:43;;;;;;;;;50.25;36.25;;;;;11.97;45.72;99759.91;4685312;29;103051;-77
2021/03/03 08:00:12;;;;;;;;;51.00;36.75;;;;;11.97;45.63;99763.47;4683720;29;102869;-77
2021/03/03 08:02:52;;;;;;;;;39.00;33.25;;;;;11.98;46.13;99762.44;4657848;29;102986;-77
2021/03/03 08:05:27;;;;;;;;;36.50;32.25;;;;;11.98;46.36;99757.00;4613898;29;109275;-77
2021/03/03 08:08:34;;;;;;;;;44.75;35.00;;;;;11.96;46.26;99758.22;4689025;29;102964;-77
2021/03/03 08:11:01;;;;;;;;;44.50;36.75;;;;;11.97;46.14;99759.91;4620454;29;102953;-77
2021/03/03 08:13:31;;;;;;;;;37.25;32.50;;;;;11.95;46.09;99757.38;4684218;29;103174;-77
2021/03/03 08:16:04;;;;;;;;;39.75;33.25;;;;;11.98;46.29;99753.44;4686148;29;103955;-77
2021/03/03 08:18:32;;;;;;;;;41.75;35.75;;;;;11.98;46.19;99750.75;4688642;29;103038;-77
2021/03/03 08:21:09;;;;;;;;;45.25;36.00;;;;;11.97;46.14;99744.50;4662116;29;103126;-77
2021/03/03 08:23:37;;;;;;;;;48.50;35.25;;;;;11.99;45.98;99738.88;4681828;29;102941;-77
2021/03/03 08:26:16;;;;;;;;;37.50;32.00;;;;;11.98;46.00;99734.47;4685887;29;104677;-77
2021/03/03 08:28:50;;;;;;;;;42.25;33.25;;;;;11.99;45.93;99733.47;4685016;29;103261;-77
2021/03/03 08:31:17;;;;;;;;;40.50;33.00;;;;;11.99;46.09;99736.16;4682854;29;102988;-77
2021/03/03 08:33:51;;;;;;;;;44.75;34.00;;;;;11.99;45.83;99737.00;4690341;29;103002;-77
2021/03/03 08:36:21;;;;;;;;;32.25;28.00;;;;;12.00;45.55;99740.56;4687478;29;104363;-77
2021/03/03 08:38:54;;;;;;;;;42.00;34.75;;;;;11.97;46.16;99732.81;4688241;29;102873;-77
2021/03/03 08:41:28;;;;;;;;;27.00;23.00;;;;;11.99;45.92;99731.59;4685077;29;104300;-77
2021/03/03 08:44:03;;;;;;;;;39.25;26.25;;;;;12.00;45.65;99727.03;4687655;29;103064;-77
2021/03/03 08:46:30;;;;;;;;;27.50;22.75;;;;;12.00;45.86;99732.44;4682274;29;104541;-77
2021/03/03 08:48:57;;;;;;;;;42.00;35.00;;;;;12.00;45.54;99729.72;4689848;29;102789;-77
2021/03/03 08:51:28;;;;;;;;;33.25;30.50;;;;;12.01;45.94;99729.56;4688435;29;102776;-77
2021/03/03 08:54:02;;;;;;;;;40.25;33.00;;;;;12.01;45.74;99732.28;4691997;29;103068;-77
2021/03/03 08:56:42;;;;;;;;;37.75;32.50;;;;;12.02;46.03;99730.41;4687086;29;104284;-77
2021/03/03 08:59:09;;;;;;;;;40.25;33.00;;;;;12.02;45.72;99727.69;4680682;29;102738;-77
2021/03/03 09:01:52;;;;;;;;;41.25;33.00;;;;;12.02;45.89;99720.38;4682323;29;105030;-77
2021/03/03 09:04:21;;;;;;;;;26.00;24.00;;;;;12.02;45.83;99719.56;4578195;29;103352;-77
2021/03/03 09:06:49;;;;;;;;;36.50;33.00;;;;;12.03;45.97;99718.50;4687227;29;104058;-77
2021/03/03 09:09:15;;;;;;;;;39.25;31.25;;;;;12.04;45.89;99714.78;4659028;29;103005;-77
2021/03/03 09:11:42;;;;;;;;;35.50;29.25;;;;;12.04;45.98;99712.91;4687081;29;102913;-77
2021/03/03 09:14:09;;;;;;;;;36.00;32.25;;;;;12.05;46.28;99709.19;4691431;29;103031;-77
2021/03/03 09:16:57;;;;;;;;;37.25;31.00;;;;;12.05;45.62;99705.63;4687322;29;109799;-77
2021/03/03 09:19:25;;;;;;;;;40.75;32.50;;;;;12.05;45.50;99705.63;4613996;29;103026;-77
2021/03/03 09:21:52;;;;;;;;;38.25;32.00;;;;;12.06;45.96;99705.47;4689713;29;103811;-77
2021/03/03 09:24:19;;;;;;;;;32.75;30.00;;;;;12.07;45.68;99700.84;4672227;29;102971;-77
2021/03/03 09:26:45;;;;;;;;;41.00;33.00;;;;;12.06;45.46;99699.19;4668644;29;104440;-77
2021/03/03 09:29:29;;;;;;;;;34.50;30.00;;;;;12.08;45.62;99697.13;4687792;29;102962;-77
2021/03/03 09:31:56;;;;;;;;;38.00;32.50;;;;;12.09;45.23;99696.09;4689816;29;102744;-77
2021/03/03 09:34:23;;;;;;;;;39.75;33.00;;;;;12.10;45.66;99699.66;4688977;29;103006;-77
2021/03/03 09:36:58;;;;;;;;;49.00;32.50;;;;;12.10;45.91;99695.09;4672222;29;104203;-77
2021/03/03 09:39:25;;;;;;;;;38.25;31.75;;;;;12.11;45.24;99690.50;4682231;29;103004;-77
2021/03/03 09:41:55;;;;;;;;;34.00;30.25;;;;;12.13;45.42;99689.28;4681360;29;102730;-77
2021/03/03 09:44:22;;;;;;;;;34.50;28.25;;;;;12.12;45.65;99693.00;4688610;29;103533;-77
2021/03/03 09:46:53;;;;;;;;;34.50;31.50;;;;;12.13;45.49;99689.28;4684803;29;104261;-77
2021/03/03 09:49:38;;;;;;;;;35.25;29.50;;;;;12.14;45.50;99685.56;4669119;29;102953;-77
2021/03/03 09:52:06;;;;;;;;;31.50;26.75;;;;;12.14;45.36;99685.56;4687649;29;102743;-77
2021/03/03 09:54:35;;;;;;;;;39.75;32.75;;;;;12.16;45.71;99688.09;4683858;29;105331;-77
2021/03/03 09:57:22;;;;;;;;;35.75;31.75;;;;;12.16;45.51;99675.34;4686992;29;104032;-77
2021/03/03 09:59:50;;;;;;;;;39.25;31.50;;;;;12.19;45.86;99685.00;4596690;29;103516;-77
2021/03/03 10:02:22;;;;;;;;;32.50;27.00;;;;;12.18;44.79;99676.00;4686991;29;103247;-77
2021/03/03 10:04:49;;;;;;;;;38.50;30.00;;;;;12.18;45.49;99669.75;4671973;29;103018;-77
2021/03/03 10:07:24;;;;;;;;;33.50;30.00;;;;;12.19;45.26;99672.28;4676575;29;104400;-77
2021/03/03 10:09:55;;;;;;;;;31.75;29.75;;;;;12.20;45.42;99662.28;4680697;29;103194;-77
2021/03/03 10:12:24;;;;;;;;;37.25;26.00;;;;;12.19;45.54;99664.16;4687886;29;102914;-77
2021/03/03 10:15:11;;;;;;;;;35.25;30.00;;;;;12.22;44.83;99668.34;4680283;29;102832;-77
2021/03/03 10:17:39;;;;;;;;;33.50;27.75;;;;;12.22;45.54;99662.94;4682757;29;108868;-77
2021/03/03 10:20:26;;;;;;;;;30.25;26.50;;;;;12.22;45.02;99657.50;4690004;29;102885;-77
2021/03/03 10:22:58;;;;;;;;;31.50;28.00;;;;;12.24;45.49;99656.31;4583475;29;102994;-77
2021/03/03 10:25:52;;;;;;;;;27.75;23.75;;;;;12.26;44.90;99656.09;4675598;29;102890;-77
2021/03/03 10:28:20;;;;;;;;;30.25;24.00;;;;;12.26;45.56;99651.53;4593290;29;110289;-77
2021/03/03 10:30:54;;;;;;;;;32.50;29.00;;;;;12.28;45.28;99651.34;4685820;29;102945;-77
2021/03/03 10:33:39;;;;;;;;;22.50;20.75;;;;;12.28;45.65;99643.22;4654039;29;102811;-77
2021/03/03 10:36:08;;;;;;;;;29.00;26.25;;;;;12.29;45.24;99637.56;4673703;29;103018;-77
2021/03/03 10:38:46;;;;;;;;;28.25;24.00;;;;;12.31;45.73;99631.97;4687511;29;104890;-77
2021/03/03 10:41:27;;;;;;;;;29.50;25.25;;;;;12.32;44.93;99629.09;4667080;29;103020;-77
2021/03/03 10:43:54;;;;;;;;;33.50;26.25;;;;;12.34;45.02;99621.59;4679365;29;104112;-77
2021/03/03 10:46:22;;;;;;;;;28.75;21.00;;;;;12.33;45.42;99619.94;4671418;29;103007;-77
2021/03/03 10:48:50;;;;;;;;;25.25;22.50;;;;;12.34;45.03;99610.75;4669372;29;104491;-77
2021/03/03 10:51:18;;;;;;;;;27.50;23.50;;;;;12.34;44.85;99612.59;4667152;29;102898;-77
2021/03/03 10:53:54;;;;;;;;;23.25;21.75;;;;;12.39;45.48;99613.72;4682217;29;103130;-77
2021/03/03 10:56:30;;;;;;;;;28.75;23.25;;;;;12.40;45.05;99604.56;4671540;29;102966;-77
2021/03/03 10:59:01;;;;;;;;;29.75;26.50;;;;;12.41;44.99;99598.13;4683309;29;104812;-77
2021/03/03 11:01:52;;;;;;;;;26.25;22.75;;;;;12.42;45.11;99599.81;4673035;29;103554;-77
2021/03/03 11:04:19;;;;;;;;;26.25;25.50;;;;;12.44;45.17;99600.47;4626864;29;103001;-77
2021/03/03 11:06:46;;;;;;;;;27.50;23.75;;;;;12.45;45.21;99591.28;4696085;29;102977;-77
2021/03/03 11:09:18;;;;;;;;;26.75;24.25;;;;;12.47;44.91;99589.22;4689900;29;104162;-76
2021/03/03 11:11:47;;;;;;;;;23.25;21.00;;;;;12.45;45.58;99576.88;4684469;29;102986;-77
2021/03/03 11:14:14;;;;;;;;;32.00;25.50;;;;;12.50;45.35;99580.72;4672985;29;102861;-77
2021/03/03 11:16:40;;;;;;;;;24.00;20.00;;;;;12.52;44.94;99581.34;4677999;29;103033;-77
2021/03/03 11:19:08;;;;;;;;;27.75;23.50;;;;;12.53;45.31;99566.78;4669696;29;109009;-77
2021/03/03 11:21:35;;;;;;;;;28.75;25.75;;;;;12.56;45.08;99567.44;4690429;29;104427;-77